createdAt,value
2023-02-14T00:01:47.234Z,8.95
2023-02-14T00:04:20.398Z,7.57
2023-02-14T00:06:51.819Z,7.70
2023-02-14T00:09:21.082Z,7.95
2023-02-14T00:11:49.446Z,8.65
2023-02-14T00:14:47.134Z,7.65
2023-02-14T00:17:15.609Z,8.40
2023-02-14T00:19:45.472Z,7.53
2023-02-14T00:22:13.831Z,8.18
2023-02-14T00:24:42.104Z,8.13
2023-02-14T00:27:10.422Z,8.07
2023-02-14T00:29:39.023Z,7.35
2023-02-14T00:32:07.377Z,7.65
2023-02-14T00:34:36.639Z,8.43
2023-02-14T00:37:06.496Z,7.80
2023-02-14T00:39:34.835Z,9.02
2023-02-14T00:42:03.269Z,8.18
2023-02-14T00:44:31.579Z,8.18
2023-02-14T00:46:59.875Z,8.15
2023-02-14T00:49:28.134Z,7.68
2023-02-14T00:51:56.544Z,8.32
2023-02-14T00:54:26.369Z,8.60
2023-02-14T00:56:54.716Z,8.55
2023-02-14T00:59:23.002Z,9.40
2023-02-14T01:01:51.539Z,8.77
2023-02-14T01:04:19.904Z,8.80
2023-02-14T01:06:48.491Z,8.90
2023-02-14T01:09:16.905Z,9.70
2023-02-14T01:11:46.918Z,9.30
2023-02-14T01:14:16.472Z,10.60
2023-02-14T01:16:45.218Z,9.82
2023-02-14T01:19:14.276Z,9.23
2023-02-14T01:21:45.357Z,10.02
2023-02-14T01:24:14.315Z,9.88
2023-02-14T01:26:45.995Z,9.55
2023-02-14T01:29:17.163Z,9.80
2023-02-14T01:31:48.475Z,10.98
2023-02-14T01:34:16.769Z,9.98
2023-02-14T01:36:47.851Z,8.70
2023-02-14T01:39:17.767Z,10.38
2023-02-14T01:41:49.167Z,9.65
2023-02-14T01:44:55.182Z,10.57
2023-02-14T01:47:23.982Z,10.13
2023-02-14T01:49:56.302Z,10.38
2023-02-14T01:52:28.653Z,11.30
2023-02-14T01:55:01.729Z,10.30
2023-02-14T01:57:37.744Z,9.95
2023-02-14T02:00:26.600Z,11.30
2023-02-14T02:02:56.617Z,10.90
2023-02-14T02:05:25.157Z,10.43
2023-02-14T02:07:56.470Z,11.38
2023-02-14T02:10:26.899Z,10.52
2023-02-14T02:12:56.975Z,11.75
2023-02-14T02:15:28.592Z,10.68
2023-02-14T02:18:06.948Z,11.40
2023-02-14T02:21:08.369Z,10.27
2023-02-14T02:24:03.877Z,10.32
2023-02-14T02:27:06.378Z,9.70
2023-02-14T02:30:17.471Z,11.95
2023-02-14T02:33:26.398Z,12.50
2023-02-14T02:36:09.269Z,10.32
2023-02-14T02:38:55.686Z,12.05
2023-02-14T02:41:30.932Z,12.38
2023-02-14T02:44:10.711Z,11.50
2023-02-14T02:46:51.143Z,12.63
2023-02-14T02:49:50.496Z,12.40
2023-02-14T02:52:44.486Z,11.48
2023-02-14T02:55:18.910Z,12.00
2023-02-14T02:57:49.830Z,12.27
2023-02-14T03:00:20.217Z,11.90
2023-02-14T03:03:08.843Z,11.68
2023-02-14T03:05:38.578Z,11.85
2023-02-14T03:08:08.675Z,11.32
2023-02-14T03:10:40.708Z,12.13
2023-02-14T03:13:38.111Z,11.75
2023-02-14T03:16:35.632Z,10.75
2023-02-14T03:19:22.668Z,11.32
2023-02-14T03:21:56.795Z,12.07
2023-02-14T03:24:37.370Z,11.52
2023-02-14T03:27:15.853Z,11.18
2023-02-14T03:29:56.903Z,12.20
2023-02-14T03:32:32.605Z,13.57
2023-02-14T03:35:08.770Z,11.85
2023-02-14T03:37:43.419Z,11.88
2023-02-14T03:40:18.907Z,12.35
2023-02-14T03:42:52.521Z,13.05
2023-02-14T03:45:28.881Z,12.25
2023-02-14T03:48:01.281Z,11.85
2023-02-14T03:50:30.697Z,11.93
2023-02-14T03:53:01.041Z,12.50
2023-02-14T03:55:36.975Z,11.75
2023-02-14T03:58:10.076Z,13.60
2023-02-14T04:00:42.917Z,12.88
2023-02-14T04:03:14.878Z,12.05
2023-02-14T04:05:46.812Z,11.82
2023-02-14T04:08:22.348Z,12.27
2023-02-14T04:10:52.724Z,12.57
2023-02-14T04:13:21.371Z,11.80
2023-02-14T04:15:49.790Z,12.05
2023-02-14T04:18:35.251Z,12.82
2023-02-14T04:21:03.499Z,13.60
2023-02-14T04:23:31.726Z,12.65
2023-02-14T04:26:03.752Z,12.48
2023-02-14T04:28:32.138Z,13.32
2023-02-14T04:31:03.800Z,12.13
2023-02-14T04:33:32.572Z,12.07
2023-02-14T04:36:01.328Z,12.18
2023-02-14T04:38:30.059Z,12.25
2023-02-14T04:40:58.604Z,11.77
2023-02-14T04:43:28.693Z,12.38
2023-02-14T04:45:56.975Z,13.10
2023-02-14T04:48:25.215Z,12.40
2023-02-14T04:50:54.394Z,12.60
2023-02-14T04:53:23.272Z,12.95
2023-02-14T04:55:51.549Z,12.95
2023-02-14T04:58:20.069Z,13.02
2023-02-14T05:00:49.838Z,12.68
2023-02-14T05:03:18.093Z,11.90
2023-02-14T05:05:46.310Z,13.25
2023-02-14T05:08:15.021Z,13.52
2023-02-14T05:10:43.340Z,13.27
2023-02-14T05:13:11.638Z,13.30
2023-02-14T05:15:39.935Z,12.63
2023-02-14T05:18:09.928Z,13.60
2023-02-14T05:20:38.272Z,13.25
2023-02-14T05:23:13.509Z,12.35
2023-02-14T05:25:42.135Z,13.38
2023-02-14T05:28:11.067Z,13.57
2023-02-14T05:30:39.836Z,13.50
2023-02-14T05:33:09.848Z,13.68
2023-02-14T05:35:38.304Z,13.57
2023-02-14T05:38:06.641Z,13.00
2023-02-14T05:40:35.009Z,11.25
2023-02-14T05:43:03.379Z,14.07
2023-02-14T05:45:31.673Z,13.05
2023-02-14T05:48:00.084Z,12.93
2023-02-14T05:50:29.767Z,13.48
2023-02-14T05:52:59.102Z,12.75
2023-02-14T05:55:27.421Z,13.70
2023-02-14T05:57:55.766Z,13.60
2023-02-14T06:00:25.164Z,13.40
2023-02-14T06:02:53.462Z,13.98
2023-02-14T06:05:21.770Z,13.75
2023-02-14T06:07:51.825Z,12.85
2023-02-14T06:10:21.818Z,13.65
2023-02-14T06:12:51.597Z,13.93
2023-02-14T06:15:20.747Z,13.65
2023-02-14T06:17:52.877Z,12.10
2023-02-14T06:20:22.042Z,13.27
2023-02-14T06:22:51.934Z,13.52
2023-02-14T06:25:20.664Z,14.32
2023-02-14T06:27:49.527Z,13.55
2023-02-14T06:30:19.099Z,13.60
2023-02-14T06:32:47.431Z,12.10
2023-02-14T06:35:15.984Z,12.77
2023-02-14T06:37:45.350Z,13.40
2023-02-14T06:40:15.862Z,13.25
2023-02-14T06:42:44.490Z,13.85
2023-02-14T06:45:12.886Z,14.50
2023-02-14T06:47:41.294Z,12.43
2023-02-14T06:50:12.705Z,12.10
2023-02-14T06:52:42.218Z,13.20
2023-02-14T06:55:12.235Z,12.30
2023-02-14T06:57:41.970Z,12.45
2023-02-14T07:00:11.591Z,13.48
2023-02-14T07:02:39.961Z,13.90
2023-02-14T07:05:08.737Z,12.23
2023-02-14T07:07:37.013Z,13.32
2023-02-14T07:10:05.727Z,15.50
2023-02-14T07:12:34.945Z,12.77
2023-02-14T07:15:04.984Z,12.70
2023-02-14T07:17:33.465Z,14.43
2023-02-14T07:20:02.229Z,14.65
2023-02-14T07:22:30.587Z,14.10
2023-02-14T07:24:58.896Z,12.15
2023-02-14T07:27:27.567Z,12.95
2023-02-14T07:29:55.991Z,13.80
2023-02-14T07:32:26.431Z,13.52
2023-02-14T07:34:54.821Z,13.80
2023-02-14T07:37:23.171Z,14.13
2023-02-14T07:39:51.545Z,12.50
2023-02-14T07:42:19.850Z,13.95
2023-02-14T07:44:48.104Z,13.73
2023-02-14T07:47:16.458Z,13.10
2023-02-14T07:49:46.299Z,13.60
2023-02-14T07:52:14.689Z,13.65
2023-02-14T07:54:43.084Z,13.50
2023-02-14T07:57:11.424Z,12.50
2023-02-14T07:59:39.775Z,12.75
2023-02-14T08:02:08.393Z,14.07
2023-02-14T08:04:38.132Z,13.63
2023-02-14T08:07:07.997Z,13.73
2023-02-14T08:09:36.344Z,13.98
2023-02-14T08:12:21.884Z,14.30
2023-02-14T08:14:50.349Z,13.95
2023-02-14T08:17:18.736Z,12.70
2023-02-14T08:19:47.179Z,13.27
2023-02-14T08:22:18.294Z,14.45
2023-02-14T08:24:47.465Z,14.40
2023-02-14T08:27:15.801Z,14.88
2023-02-14T08:29:44.382Z,13.70
2023-02-14T08:32:21.040Z,14.18
2023-02-14T08:34:49.345Z,13.88
2023-02-14T08:37:19.090Z,13.00
2023-02-14T08:39:47.439Z,14.13
2023-02-14T08:42:15.944Z,13.82
2023-02-14T08:44:44.222Z,14.45
2023-02-14T08:47:13.195Z,15.02
2023-02-14T08:49:41.442Z,14.45
2023-02-14T08:52:09.775Z,15.10
2023-02-14T08:54:39.741Z,14.23
2023-02-14T08:57:08.062Z,16.23
2023-02-14T08:59:36.436Z,14.18
2023-02-14T09:02:04.861Z,14.57
2023-02-14T09:04:35.487Z,15.38
2023-02-14T09:07:04.711Z,15.30
2023-02-14T09:09:33.166Z,14.68
2023-02-14T09:12:07.093Z,15.10
2023-02-14T09:14:37.187Z,14.43
2023-02-14T09:17:06.456Z,14.80
2023-02-14T09:19:37.696Z,14.82
2023-02-14T09:22:07.904Z,15.68
2023-02-14T09:24:41.086Z,13.73
2023-02-14T09:27:10.884Z,14.25
2023-02-14T09:29:39.141Z,14.55
2023-02-14T09:32:07.573Z,14.18
2023-02-14T09:34:36.926Z,16.15
2023-02-14T09:37:06.349Z,15.93
2023-02-14T09:39:34.820Z,15.95
2023-02-14T09:42:16.527Z,14.80
2023-02-14T09:44:51.440Z,15.27
2023-02-14T09:47:25.086Z,16.35
2023-02-14T09:49:54.577Z,15.60
2023-02-14T09:52:27.548Z,15.85
2023-02-14T09:54:58.976Z,15.43
2023-02-14T09:57:37.599Z,16.92
2023-02-14T10:00:18.287Z,15.77
2023-02-14T10:02:58.816Z,14.35
2023-02-14T10:05:29.597Z,16.08
2023-02-14T10:08:03.596Z,16.65
2023-02-14T10:10:39.672Z,15.45
2023-02-14T10:13:17.207Z,15.68
2023-02-14T10:15:48.262Z,15.27
2023-02-14T10:18:21.651Z,15.05
2023-02-14T10:20:54.163Z,15.82
2023-02-14T10:23:30.564Z,16.75
2023-02-14T10:26:02.916Z,16.25
2023-02-14T10:28:38.684Z,15.88
2023-02-14T10:31:21.822Z,14.98
2023-02-14T10:33:57.848Z,15.02
2023-02-14T10:36:54.356Z,14.85
2023-02-14T10:39:44.557Z,15.10
2023-02-14T10:42:24.494Z,14.90
2023-02-14T10:45:02.041Z,15.35
2023-02-14T10:47:41.817Z,15.30
2023-02-14T10:50:20.185Z,16.13
2023-02-14T10:53:01.112Z,15.52
2023-02-14T10:55:40.864Z,14.95
2023-02-14T10:58:13.828Z,15.43
2023-02-14T11:00:56.289Z,13.40
2023-02-14T11:03:25.622Z,15.05
2023-02-14T11:05:53.944Z,16.98
2023-02-14T11:08:27.149Z,16.73
2023-02-14T11:11:02.083Z,15.50
2023-02-14T11:13:36.648Z,16.35
2023-02-14T11:16:10.026Z,17.23
2023-02-14T11:18:40.063Z,14.40
2023-02-14T11:21:11.417Z,13.77
2023-02-14T11:23:42.585Z,15.05
2023-02-14T11:26:18.570Z,16.10
2023-02-14T11:29:01.430Z,14.82
2023-02-14T11:31:34.892Z,16.63
2023-02-14T11:34:06.349Z,14.40
2023-02-14T11:36:43.183Z,15.75
2023-02-14T11:39:24.523Z,14.93
2023-02-14T11:41:54.279Z,15.75
2023-02-14T11:44:25.266Z,15.55
2023-02-14T11:46:56.965Z,15.65
2023-02-14T11:49:32.159Z,14.82
2023-02-14T11:52:10.414Z,15.38
2023-02-14T11:54:41.466Z,14.73
2023-02-14T11:57:14.914Z,15.00
2023-02-14T11:59:45.362Z,15.18
2023-02-14T12:02:28.140Z,16.73
2023-02-14T12:05:00.105Z,16.38
2023-02-14T12:07:31.949Z,15.20
2023-02-14T12:10:16.915Z,16.13
2023-02-14T12:12:55.286Z,15.55
2023-02-14T12:15:29.148Z,15.52
2023-02-14T12:18:17.072Z,15.40
2023-02-14T12:20:50.482Z,15.68
2023-02-14T12:23:22.963Z,14.98
2023-02-14T12:25:55.667Z,15.95
2023-02-14T12:28:31.525Z,14.98
2023-02-14T12:31:00.584Z,16.70
2023-02-14T12:33:30.931Z,14.27
2023-02-14T12:36:06.968Z,16.17
2023-02-14T12:38:43.980Z,15.18
2023-02-14T12:41:26.451Z,14.13
2023-02-14T12:43:56.297Z,14.95
2023-02-14T12:47:03.860Z,16.52
2023-02-14T12:50:19.308Z,15.55
2023-02-14T12:53:25.859Z,15.75
2023-02-14T12:56:02.263Z,14.65
2023-02-14T12:58:43.409Z,15.88
2023-02-14T13:01:39.006Z,18.10
2023-02-14T13:04:35.462Z,14.10
2023-02-14T13:07:12.907Z,14.65
2023-02-14T13:09:48.497Z,14.27
2023-02-14T13:12:29.252Z,13.55
2023-02-14T13:15:16.568Z,14.13
2023-02-14T13:17:48.762Z,14.45
2023-02-14T13:20:45.890Z,14.55
2023-02-14T13:23:21.806Z,15.23
2023-02-14T13:25:55.593Z,14.10
2023-02-14T13:28:24.606Z,15.40
2023-02-14T13:30:53.271Z,15.30
2023-02-14T13:33:39.858Z,13.38
2023-02-14T13:36:11.916Z,13.38
2023-02-14T13:38:45.277Z,13.30
2023-02-14T13:41:15.660Z,15.15
2023-02-14T13:43:50.320Z,14.32
2023-02-14T13:46:21.097Z,13.38
2023-02-14T13:49:01.912Z,15.07
2023-02-14T13:51:54.833Z,13.80
2023-02-14T13:54:45.873Z,15.55
2023-02-14T13:57:34.227Z,14.82
2023-02-14T14:00:40.167Z,14.93
2023-02-14T14:03:13.674Z,14.55
2023-02-14T14:06:01.733Z,15.40
2023-02-14T14:08:50.493Z,14.77
2023-02-14T14:11:59.814Z,14.52
2023-02-14T14:14:39.700Z,14.20
2023-02-14T14:17:27.704Z,13.57
2023-02-14T14:19:57.977Z,13.40
2023-02-14T14:22:27.389Z,13.82
2023-02-14T14:24:58.260Z,14.10
2023-02-14T14:27:30.484Z,12.68
2023-02-14T14:30:04.142Z,14.15
2023-02-14T14:32:34.343Z,14.60
2023-02-14T14:35:06.308Z,14.45
2023-02-14T14:37:37.497Z,14.07
2023-02-14T14:40:08.260Z,14.10
2023-02-14T14:42:38.992Z,15.35
2023-02-14T14:45:21.884Z,14.52
2023-02-14T14:47:53.925Z,14.05
2023-02-14T14:50:25.126Z,15.18
2023-02-14T14:52:56.399Z,14.35
2023-02-14T14:55:27.653Z,14.65
2023-02-14T14:57:58.312Z,13.05
2023-02-14T15:00:30.361Z,15.18
2023-02-14T15:03:04.922Z,14.27
2023-02-14T15:05:36.397Z,13.40
2023-02-14T15:08:22.734Z,14.15
2023-02-14T15:10:57.292Z,13.43
2023-02-14T15:13:53.736Z,14.25
2023-02-14T15:16:27.586Z,13.88
2023-02-14T15:19:00.355Z,14.32
2023-02-14T15:21:30.726Z,14.10
2023-02-14T15:23:59.462Z,14.20
2023-02-14T15:26:31.580Z,14.52
2023-02-14T15:29:01.924Z,14.18
2023-02-14T15:31:35.856Z,14.88
2023-02-14T15:34:05.136Z,13.85
2023-02-14T15:36:34.936Z,15.20
2023-02-14T15:39:09.603Z,13.65
2023-02-14T15:41:43.367Z,14.38
2023-02-14T15:44:22.148Z,13.95
2023-02-14T15:46:57.817Z,14.10
2023-02-14T15:49:34.103Z,13.45
2023-02-14T15:52:04.828Z,14.95
2023-02-14T15:54:38.532Z,14.93
2023-02-14T15:57:16.796Z,15.32
2023-02-14T15:59:45.432Z,15.23
2023-02-14T16:02:27.853Z,16.17
2023-02-14T16:04:56.678Z,14.23
2023-02-14T16:07:26.960Z,15.07
2023-02-14T16:10:21.990Z,15.63
2023-02-14T16:12:59.082Z,14.63
2023-02-14T16:15:28.687Z,14.93
2023-02-14T16:17:58.529Z,15.48
2023-02-14T16:20:39.852Z,15.93
2023-02-14T16:23:23.340Z,16.77
2023-02-14T16:25:52.413Z,17.15
2023-02-14T16:28:21.317Z,17.23
2023-02-14T16:30:55.708Z,16.35
2023-02-14T16:33:27.662Z,16.73
2023-02-14T16:35:57.420Z,16.83
2023-02-14T16:38:25.705Z,19.05
2023-02-14T16:40:55.611Z,18.33
2023-02-14T16:43:23.857Z,18.08
2023-02-14T16:45:52.453Z,18.02
2023-02-14T16:48:20.733Z,18.42
2023-02-14T16:50:50.612Z,19.92
2023-02-14T16:53:28.370Z,19.20
2023-02-14T16:55:58.209Z,19.00
2023-02-14T16:58:32.878Z,19.88
2023-02-14T17:01:01.479Z,17.95
2023-02-14T17:03:30.054Z,19.05
2023-02-14T17:06:01.787Z,20.95
2023-02-14T17:08:30.965Z,20.35
2023-02-14T17:11:02.039Z,19.52
2023-02-14T17:13:34.985Z,21.05
2023-02-14T17:16:04.610Z,19.75
2023-02-14T17:18:35.081Z,21.15
2023-02-14T17:21:05.917Z,21.67
2023-02-14T17:23:34.221Z,23.08
2023-02-14T17:26:02.678Z,21.45
2023-02-14T17:28:31.057Z,20.30
2023-02-14T17:31:00.776Z,21.40
2023-02-14T17:33:30.510Z,21.00
2023-02-14T17:36:06.756Z,20.80
2023-02-14T17:38:36.030Z,21.27
2023-02-14T17:41:16.473Z,20.92
2023-02-14T17:43:44.846Z,21.65
2023-02-14T17:46:14.551Z,22.33
2023-02-14T17:48:45.478Z,23.30
2023-02-14T17:51:16.972Z,23.00
2023-02-14T17:53:46.057Z,23.20
2023-02-14T17:56:17.934Z,22.33
2023-02-14T17:58:47.855Z,23.02
2023-02-14T18:01:18.489Z,22.15
2023-02-14T18:03:46.820Z,22.75
2023-02-14T18:06:16.881Z,21.88
2023-02-14T18:08:49.305Z,22.02
2023-02-14T18:11:19.751Z,19.50
2023-02-14T18:13:48.517Z,19.95
2023-02-14T18:16:19.223Z,18.50
2023-02-14T18:18:47.724Z,18.02
2023-02-14T18:21:21.014Z,18.05
2023-02-14T18:23:49.837Z,18.30
2023-02-14T18:26:19.565Z,17.20
2023-02-14T18:28:49.196Z,18.70
2023-02-14T18:31:18.691Z,17.88
2023-02-14T18:33:49.217Z,17.98
2023-02-14T18:36:21.361Z,18.70
2023-02-14T18:38:50.301Z,17.33
2023-02-14T18:41:20.477Z,16.58
2023-02-14T18:43:49.384Z,19.88
2023-02-14T18:46:20.822Z,19.35
2023-02-14T18:48:49.355Z,18.10
2023-02-14T18:51:21.436Z,20.88
2023-02-14T18:53:52.272Z,21.42
2023-02-14T18:56:22.897Z,23.42
2023-02-14T18:58:55.092Z,26.08
2023-02-14T19:01:26.283Z,26.73
2023-02-14T19:03:54.905Z,24.27
2023-02-14T19:06:24.649Z,25.58
2023-02-14T19:08:53.003Z,25.40
2023-02-14T19:11:23.366Z,24.90
2023-02-14T19:13:53.486Z,21.77
2023-02-14T19:16:24.066Z,22.27
2023-02-14T19:18:53.376Z,19.08
2023-02-14T19:21:24.614Z,21.67
2023-02-14T19:23:56.154Z,21.67
2023-02-14T19:26:26.180Z,24.13
2023-02-14T19:28:57.824Z,23.58
2023-02-14T19:31:26.970Z,24.67
2023-02-14T19:33:55.711Z,27.83
2023-02-14T19:36:25.769Z,28.90
2023-02-14T19:38:57.585Z,30.42
2023-02-14T19:41:30.245Z,28.25
2023-02-14T19:44:00.616Z,27.48
2023-02-14T19:46:29.893Z,27.52
2023-02-14T19:48:58.964Z,30.60
2023-02-14T19:51:30.811Z,27.92
2023-02-14T19:54:00.422Z,27.60
2023-02-14T19:56:31.291Z,27.50
2023-02-14T19:58:59.946Z,28.65
2023-02-14T20:01:31.986Z,26.83
2023-02-14T20:04:00.623Z,25.75
2023-02-14T20:06:30.360Z,23.95
2023-02-14T20:08:58.790Z,22.38
2023-02-14T20:11:32.144Z,27.90
2023-02-14T20:14:01.296Z,25.85
2023-02-14T20:16:31.289Z,26.02
2023-02-14T20:19:01.742Z,26.60
2023-02-14T20:21:31.436Z,25.33
2023-02-14T20:24:00.927Z,25.95
2023-02-14T20:26:29.958Z,23.65
2023-02-14T20:29:00.237Z,26.75
2023-02-14T20:31:28.640Z,23.05
2023-02-14T20:33:57.625Z,24.23
2023-02-14T20:36:27.071Z,24.17
2023-02-14T20:38:57.725Z,23.30
2023-02-14T20:41:27.670Z,25.33
2023-02-14T20:43:56.614Z,26.63
2023-02-14T20:46:25.009Z,25.08
2023-02-14T20:48:54.312Z,25.70
2023-02-14T20:51:23.137Z,28.10
2023-02-14T20:53:51.360Z,27.90
2023-02-14T20:56:22.835Z,26.13
2023-02-14T20:58:51.232Z,24.45
2023-02-14T21:01:21.605Z,25.08
2023-02-14T21:03:52.832Z,26.73
2023-02-14T21:06:23.090Z,27.00
2023-02-14T21:08:51.441Z,26.65
2023-02-14T21:11:24.187Z,27.02
2023-02-14T21:13:55.242Z,26.60
2023-02-14T21:16:23.680Z,26.65
2023-02-14T21:18:59.016Z,26.05
2023-02-14T21:21:32.660Z,24.77
2023-02-14T21:24:02.260Z,23.00
2023-02-14T21:26:32.032Z,24.70
2023-02-14T21:29:00.403Z,21.92
2023-02-14T21:31:28.848Z,20.95
2023-02-14T21:34:00.914Z,20.55
2023-02-14T21:36:30.791Z,20.58
2023-02-14T21:39:00.502Z,19.58
2023-02-14T21:41:31.965Z,21.17
2023-02-14T21:44:01.756Z,24.15
2023-02-14T21:46:32.169Z,23.40
2023-02-14T21:49:18.670Z,21.98
2023-02-14T21:51:47.764Z,21.17
2023-02-14T21:54:16.761Z,22.95
2023-02-14T21:56:46.609Z,22.08
2023-02-14T21:59:15.357Z,23.27
2023-02-14T22:01:43.985Z,22.13
2023-02-14T22:04:13.685Z,24.30
2023-02-14T22:06:44.044Z,22.98
2023-02-14T22:09:14.948Z,22.45
2023-02-14T22:11:43.322Z,25.88
2023-02-14T22:14:14.639Z,25.67
2023-02-14T22:16:43.287Z,24.23
2023-02-14T22:19:14.867Z,25.52
2023-02-14T22:21:44.060Z,26.85
2023-02-14T22:24:12.690Z,27.05
2023-02-14T22:26:41.780Z,28.85
2023-02-14T22:29:13.468Z,26.67
2023-02-14T22:31:43.905Z,27.25
2023-02-14T22:34:14.403Z,30.55
2023-02-14T22:36:42.971Z,29.63
2023-02-14T22:39:13.693Z,30.50
2023-02-14T22:41:42.090Z,30.25
2023-02-14T22:44:13.272Z,30.00
2023-02-14T22:46:41.982Z,26.65
2023-02-14T22:49:10.396Z,23.88
2023-02-14T22:51:40.255Z,28.02
2023-02-14T22:54:12.358Z,30.40
2023-02-14T22:56:43.045Z,30.25
2023-02-14T22:59:19.788Z,31.15
2023-02-14T23:01:48.541Z,31.73
2023-02-14T23:04:17.867Z,30.85
2023-02-14T23:06:46.480Z,29.65
2023-02-14T23:09:15.827Z,32.92
2023-02-14T23:11:45.760Z,31.20
2023-02-14T23:14:34.673Z,32.08
2023-02-14T23:17:20.248Z,30.98
2023-02-14T23:20:14.551Z,30.00
2023-02-14T23:22:42.865Z,28.98
2023-02-14T23:25:12.784Z,33.13
2023-02-14T23:27:44.482Z,31.17
2023-02-14T23:30:17.235Z,32.55
2023-02-14T23:32:46.051Z,28.92
2023-02-14T23:35:14.455Z,30.08
2023-02-14T23:37:42.919Z,29.70
2023-02-14T23:40:12.151Z,29.75
2023-02-14T23:42:40.472Z,30.25
2023-02-14T23:45:26.816Z,31.27
2023-02-14T23:47:56.646Z,29.33
2023-02-14T23:50:24.931Z,33.25
2023-02-14T23:52:54.453Z,30.95
2023-02-14T23:55:22.919Z,28.92
2023-02-14T23:57:51.195Z,31.52
